Time,TemperatureF,DewpointF,PressureIn,WindDirection,WindDirectionDegrees,WindSpeedMPH,WindSpeedGustMPH,Humidity,HourlyPrecipIn,Conditions,Clouds,dailyrainin,SoftwareType,DateUTC
2013-04-10 00:02:00,23.0,18.0,-100.00,North,0,6.0,9.0,84,-99.99,,,-99.99,,2013-04-10 05:02:00,
2013-04-10 00:13:00,23.0,18.0,-100.00,North,0,6.0,9.0,84,-99.99,,,-99.99,,2013-04-10 05:13:00,
2013-04-10 00:23:00,23.0,18.0,-100.00,North,0,6.0,9.0,84,-99.99,,,-99.99,,2013-04-10 05:23:00,
2013-04-10 00:33:00,23.0,19.0,-100.00,North,355,4.0,8.0,85,-99.99,,,-99.99,,2013-04-10 05:33:00,
2013-04-10 00:43:00,23.0,19.0,-100.00,North,355,4.0,8.0,85,-99.99,,,-99.99,,2013-04-10 05:43:00,
2013-04-10 00:53:00,23.0,19.0,-100.00,North,355,4.0,8.0,85,-99.99,,,-99.99,,2013-04-10 05:53:00,
2013-04-10 01:03:00,22.0,19.0,-100.00,NNW,335,4.0,5.0,86,-99.99,,,-99.99,,2013-04-10 06:03:00,
2013-04-10 01:12:00,22.0,19.0,-100.00,NNW,335,4.0,5.0,86,-99.99,,,-99.99,,2013-04-10 06:12:00,
2013-04-10 01:22:00,22.0,19.0,-100.00,NNW,335,4.0,5.0,86,-99.99,,,-99.99,,2013-04-10 06:22:00,
2013-04-10 01:32:00,22.0,19.0,-100.00,NNW,335,2.0,5.0,89,-99.99,,,-99.99,,2013-04-10 06:32:00,
2013-04-10 01:42:00,22.0,19.0,-100.00,NNW,335,2.0,5.0,89,-99.99,,,-99.99,,2013-04-10 06:42:00,
2013-04-10 01:52:00,22.0,19.0,-100.00,NNW,335,2.0,5.0,89,-99.99,,,-99.99,,2013-04-10 06:52:00,
2013-04-10 02:02:00,21.0,19.0,-100.00,West,270,4.0,4.0,91,-99.99,,,-99.99,,2013-04-10 07:02:00,
2013-04-10 02:12:00,21.0,19.0,-100.00,West,270,4.0,4.0,91,-99.99,,,-99.99,,2013-04-10 07:12:00,
2013-04-10 02:22:00,21.0,19.0,-100.00,West,270,4.0,4.0,91,-99.99,,,-99.99,,2013-04-10 07:22:00,
2013-04-10 02:32:00,20.0,19.0,-100.00,NW,310,4.0,7.0,95,-99.99,,,-99.99,,2013-04-10 07:32:00,
2013-04-10 02:43:00,20.0,19.0,-100.00,NW,310,4.0,7.0,95,-99.99,,,-99.99,,2013-04-10 07:43:00,
2013-04-10 02:52:00,20.0,19.0,-100.00,NW,310,4.0,7.0,95,-99.99,,,-99.99,,2013-04-10 07:52:00,
2013-04-10 03:02:00,20.0,19.0,-100.00,West,280,4.0,7.0,95,-99.99,,,-99.99,,2013-04-10 08:02:00,
2013-04-10 03:12:00,20.0,19.0,-100.00,West,280,4.0,7.0,95,-99.99,,,-99.99,,2013-04-10 08:12:00,
2013-04-10 03:22:00,20.0,19.0,-100.00,West,280,4.0,7.0,95,-99.99,,,-99.99,,2013-04-10 08:22:00,
2013-04-10 03:32:00,19.0,18.0,-100.00,NNW,335,6.0,7.0,96,-99.99,,,-99.99,,2013-04-10 08:32:00,
2013-04-10 03:43:00,19.0,18.0,-100.00,NNW,335,6.0,7.0,96,-99.99,,,-99.99,,2013-04-10 08:43:00,
2013-04-10 03:52:00,19.0,18.0,-100.00,NNW,335,6.0,7.0,96,-99.99,,,-99.99,,2013-04-10 08:52:00,
2013-04-10 04:02:00,19.0,18.0,-100.00,North,350,5.0,8.0,96,-99.99,,,-99.99,,2013-04-10 09:02:00,
2013-04-10 04:12:00,19.0,18.0,-100.00,North,350,5.0,8.0,96,-99.99,,,-99.99,,2013-04-10 09:12:00,
2013-04-10 04:22:00,19.0,18.0,-100.00,North,350,5.0,8.0,96,-99.99,,,-99.99,,2013-04-10 09:22:00,
2013-04-10 04:32:00,19.0,18.0,-100.00,North,350,6.0,9.0,96,-99.99,,,-99.99,,2013-04-10 09:32:00,
2013-04-10 04:43:00,19.0,18.0,-100.00,North,350,6.0,9.0,96,-99.99,,,-99.99,,2013-04-10 09:43:00,
2013-04-10 04:53:00,19.0,18.0,-100.00,North,350,6.0,9.0,96,-99.99,,,-99.99,,2013-04-10 09:53:00,
2013-04-10 05:03:00,20.0,19.0,-100.00,North,5,7.0,10.0,96,-99.99,,,-99.99,,2013-04-10 10:03:00,
2013-04-10 05:13:00,20.0,19.0,-100.00,North,5,7.0,10.0,96,-99.99,,,-99.99,,2013-04-10 10:13:00,
2013-04-10 05:23:00,20.0,19.0,-100.00,North,5,7.0,10.0,96,-99.99,,,-99.99,,2013-04-10 10:23:00,
2013-04-10 05:33:00,20.0,19.0,-100.00,North,5,11.0,16.0,96,-99.99,,,-99.99,,2013-04-10 10:33:00,
2013-04-10 05:43:00,20.0,19.0,-100.00,North,5,11.0,16.0,96,-99.99,,,-99.99,,2013-04-10 10:43:00,
2013-04-10 05:52:00,20.0,19.0,-100.00,North,5,11.0,16.0,96,-99.99,,,-99.99,,2013-04-10 10:52:00,
2013-04-10 06:02:00,21.0,19.0,-100.00,NNE,15,8.0,14.0,95,-99.99,,,-99.99,,2013-04-10 11:02:00,
2013-04-10 06:12:00,21.0,19.0,-100.00,NNE,15,8.0,14.0,95,-99.99,,,-99.99,,2013-04-10 11:12:00,
2013-04-10 06:22:00,21.0,19.0,-100.00,NNE,15,8.0,14.0,95,-99.99,,,-99.99,,2013-04-10 11:22:00,
2013-04-10 06:32:00,20.0,19.0,-100.00,North,0,5.0,7.0,94,-99.99,,,-99.99,,2013-04-10 11:32:00,
2013-04-10 06:42:00,20.0,19.0,-100.00,North,0,5.0,7.0,94,-99.99,,,-99.99,,2013-04-10 11:42:00,
2013-04-10 06:53:00,20.0,19.0,-100.00,North,0,5.0,7.0,94,-99.99,,,-99.99,,2013-04-10 11:53:00,
2013-04-10 07:03:00,20.0,19.0,-100.00,NNW,345,5.0,7.0,95,-99.99,,,-99.99,,2013-04-10 12:03:00,
2013-04-10 07:12:00,20.0,19.0,-100.00,NNW,345,5.0,7.0,95,-99.99,,,-99.99,,2013-04-10 12:12:00,
2013-04-10 07:22:00,20.0,19.0,-100.00,NNW,345,5.0,7.0,95,-99.99,,,-99.99,,2013-04-10 12:22:00,
2013-04-10 07:33:00,20.0,19.0,-100.00,NW,320,6.0,7.0,95,-99.99,,,-99.99,,2013-04-10 12:33:00,
2013-04-10 07:43:00,20.0,19.0,-100.00,NW,320,6.0,7.0,95,-99.99,,,-99.99,,2013-04-10 12:43:00,
2013-04-10 07:52:00,20.0,19.0,-100.00,NW,320,6.0,7.0,95,-99.99,,,-99.99,,2013-04-10 12:52:00,
2013-04-10 08:02:00,20.0,19.0,-100.00,WNW,295,5.0,7.0,96,-99.99,,,-99.99,,2013-04-10 13:02:00,
2013-04-10 08:12:00,20.0,19.0,-100.00,WNW,295,5.0,7.0,96,-99.99,,,-99.99,,2013-04-10 13:12:00,
2013-04-10 08:23:00,20.0,19.0,-100.00,WNW,295,5.0,7.0,96,-99.99,,,-99.99,,2013-04-10 13:23:00,
2013-04-10 08:32:00,21.0,20.0,-100.00,NW,325,9.0,11.0,96,-99.99,,,-99.99,,2013-04-10 13:32:00,
2013-04-10 08:43:00,21.0,20.0,-100.00,NW,325,9.0,11.0,96,-99.99,,,-99.99,,2013-04-10 13:43:00,
2013-04-10 08:53:00,21.0,20.0,-100.00,NW,325,9.0,11.0,96,-99.99,,,-99.99,,2013-04-10 13:53:00,
2013-04-10 09:02:00,21.0,20.0,-100.00,NNW,335,7.0,10.0,95,-99.99,,,-99.99,,2013-04-10 14:02:00,
2013-04-10 09:12:00,21.0,20.0,-100.00,NNW,335,7.0,10.0,95,-99.99,,,-99.99,,2013-04-10 14:12:00,
2013-04-10 09:22:00,21.0,20.0,-100.00,NNW,335,7.0,10.0,95,-99.99,,,-99.99,,2013-04-10 14:22:00,
2013-04-10 09:32:00,22.0,20.0,-100.00,NNW,335,9.0,11.0,94,-99.99,,,-99.99,,2013-04-10 14:32:00,
2013-04-10 09:42:00,22.0,20.0,-100.00,NNW,335,9.0,11.0,94,-99.99,,,-99.99,,2013-04-10 14:42:00,
2013-04-10 09:52:00,22.0,20.0,-100.00,NNW,335,9.0,11.0,94,-99.99,,,-99.99,,2013-04-10 14:52:00,
2013-04-10 10:02:00,23.0,21.0,-100.00,North,350,6.0,9.0,92,-99.99,,,-99.99,,2013-04-10 15:02:00,
2013-04-10 10:12:00,23.0,21.0,-100.00,North,350,6.0,9.0,92,-99.99,,,-99.99,,2013-04-10 15:12:00,
2013-04-10 10:22:00,23.0,21.0,-100.00,North,350,6.0,9.0,92,-99.99,,,-99.99,,2013-04-10 15:22:00,
2013-04-10 10:32:00,25.0,21.0,-100.00,North,355,7.0,11.0,84,-99.99,,,-99.99,,2013-04-10 15:32:00,
2013-04-10 10:43:00,25.0,21.0,-100.00,North,355,7.0,11.0,84,-99.99,,,-99.99,,2013-04-10 15:43:00,
2013-04-10 10:52:00,25.0,21.0,-100.00,North,355,7.0,11.0,84,-99.99,,,-99.99,,2013-04-10 15:52:00,
2013-04-10 11:03:00,26.0,21.0,-100.00,NNE,20,7.0,10.0,79,-99.99,,,-99.99,,2013-04-10 16:03:00,
2013-04-10 11:13:00,26.0,21.0,-100.00,NNE,20,7.0,10.0,79,-99.99,,,-99.99,,2013-04-10 16:13:00,
2013-04-10 11:23:00,26.0,21.0,-100.00,NNE,20,7.0,10.0,79,-99.99,,,-99.99,,2013-04-10 16:23:00,
2013-04-10 11:33:00,26.0,19.0,-100.00,North,355,7.0,11.0,75,-99.99,,,-99.99,,2013-04-10 16:33:00,
2013-04-10 11:43:00,26.0,19.0,-100.00,North,355,7.0,11.0,75,-99.99,,,-99.99,,2013-04-10 16:43:00,
2013-04-10 11:53:00,26.0,19.0,-100.00,North,355,7.0,11.0,75,-99.99,,,-99.99,,2013-04-10 16:53:00,
2013-04-10 12:02:00,27.0,19.0,-100.00,North,355,7.0,10.0,74,-99.99,,,-99.99,,2013-04-10 17:02:00,
2013-04-10 12:12:00,27.0,19.0,-100.00,North,355,7.0,10.0,74,-99.99,,,-99.99,,2013-04-10 17:12:00,
2013-04-10 12:22:00,27.0,19.0,-100.00,North,355,7.0,10.0,74,-99.99,,,-99.99,,2013-04-10 17:22:00,
2013-04-10 12:33:00,27.0,19.0,-100.00,North,0,10.0,12.0,71,-99.99,,,-99.99,,2013-04-10 17:33:00,
2013-04-10 12:43:00,27.0,19.0,-100.00,North,0,10.0,12.0,71,-99.99,,,-99.99,,2013-04-10 17:43:00,
2013-04-10 12:53:00,27.0,19.0,-100.00,North,0,10.0,12.0,71,-99.99,,,-99.99,,2013-04-10 17:53:00,
2013-04-10 13:03:00,28.0,21.0,-100.00,North,0,9.0,14.0,74,-99.99,,,-99.99,,2013-04-10 18:03:00,
2013-04-10 13:12:00,28.0,21.0,-100.00,North,0,9.0,14.0,74,-99.99,,,-99.99,,2013-04-10 18:12:00,
2013-04-10 13:23:00,28.0,21.0,-100.00,North,0,9.0,14.0,74,-99.99,,,-99.99,,2013-04-10 18:23:00,
2013-04-10 13:33:00,28.0,20.0,-100.00,North,0,12.0,16.0,70,-99.99,,,-99.99,,2013-04-10 18:33:00,
2013-04-10 13:43:00,28.0,20.0,-100.00,North,0,12.0,16.0,70,-99.99,,,-99.99,,2013-04-10 18:43:00,
2013-04-10 13:52:00,28.0,20.0,-100.00,North,0,12.0,16.0,70,-99.99,,,-99.99,,2013-04-10 18:52:00,
2013-04-10 14:03:00,29.0,20.0,-100.00,North,0,11.0,15.0,68,-99.99,,,-99.99,,2013-04-10 19:03:00,
2013-04-10 14:12:00,29.0,20.0,-100.00,North,0,11.0,15.0,68,-99.99,,,-99.99,,2013-04-10 19:12:00,
2013-04-10 14:22:00,29.0,20.0,-100.00,North,0,11.0,15.0,68,-99.99,,,-99.99,,2013-04-10 19:22:00,
2013-04-10 14:33:00,30.0,21.0,-100.00,North,350,13.0,16.0,67,-99.99,,,-99.99,,2013-04-10 19:33:00,
2013-04-10 14:42:00,30.0,21.0,-100.00,North,350,13.0,16.0,67,-99.99,,,-99.99,,2013-04-10 19:42:00,
2013-04-10 14:53:00,30.0,21.0,-100.00,North,350,13.0,16.0,67,-99.99,,,-99.99,,2013-04-10 19:53:00,
2013-04-10 15:03:00,31.0,20.0,-100.00,North,350,12.0,16.0,62,-99.99,,,-99.99,,2013-04-10 20:03:00,
2013-04-10 15:12:00,31.0,20.0,-100.00,North,350,12.0,16.0,62,-99.99,,,-99.99,,2013-04-10 20:12:00,
2013-04-10 15:23:00,31.0,20.0,-100.00,North,350,12.0,16.0,62,-99.99,,,-99.99,,2013-04-10 20:23:00,
2013-04-10 15:33:00,32.0,20.0,-100.00,North,0,11.0,16.0,61,-99.99,,,-99.99,,2013-04-10 20:33:00,
2013-04-10 15:43:00,32.0,20.0,-100.00,North,0,11.0,16.0,61,-99.99,,,-99.99,,2013-04-10 20:43:00,
2013-04-10 15:52:00,32.0,20.0,-100.00,North,0,11.0,16.0,61,-99.99,,,-99.99,,2013-04-10 20:52:00,
2013-04-10 16:03:00,33.0,20.0,-100.00,North,355,12.0,17.0,59,-99.99,,,-99.99,,2013-04-10 21:03:00,
2013-04-10 16:13:00,33.0,20.0,-100.00,North,355,12.0,17.0,59,-99.99,,,-99.99,,2013-04-10 21:13:00,
2013-04-10 16:22:00,33.0,20.0,-100.00,North,355,12.0,17.0,59,-99.99,,,-99.99,,2013-04-10 21:22:00,
2013-04-10 16:33:00,33.0,21.0,-100.00,North,0,12.0,17.0,59,-99.99,,,-99.99,,2013-04-10 21:33:00,
2013-04-10 16:43:00,33.0,21.0,-100.00,North,0,12.0,17.0,59,-99.99,,,-99.99,,2013-04-10 21:43:00,
2013-04-10 16:53:00,33.0,21.0,-100.00,North,0,12.0,17.0,59,-99.99,,,-99.99,,2013-04-10 21:53:00,
2013-04-10 17:03:00,35.0,22.0,-100.00,North,0,10.0,16.0,58,-99.99,,,-99.99,,2013-04-10 22:03:00,
2013-04-10 17:13:00,35.0,22.0,-100.00,North,0,10.0,16.0,58,-99.99,,,-99.99,,2013-04-10 22:13:00,
2013-04-10 17:23:00,35.0,22.0,-100.00,North,0,10.0,16.0,58,-99.99,,,-99.99,,2013-04-10 22:23:00,
2013-04-10 17:33:00,35.0,22.0,-100.00,North,0,9.0,16.0,59,-99.99,,,-99.99,,2013-04-10 22:33:00,
2013-04-10 17:43:00,35.0,22.0,-100.00,North,0,9.0,16.0,59,-99.99,,,-99.99,,2013-04-10 22:43:00,
2013-04-10 17:53:00,35.0,22.0,-100.00,North,0,9.0,16.0,59,-99.99,,,-99.99,,2013-04-10 22:53:00,
2013-04-10 18:03:00,35.0,24.0,-100.00,North,0,12.0,17.0,63,-99.99,,,-99.99,,2013-04-10 23:03:00,
2013-04-10 18:12:00,35.0,24.0,-100.00,North,0,12.0,17.0,63,-99.99,,,-99.99,,2013-04-10 23:12:00,
2013-04-10 18:22:00,35.0,24.0,-100.00,North,0,12.0,17.0,63,-99.99,,,-99.99,,2013-04-10 23:22:00,
2013-04-10 18:33:00,35.0,23.0,-100.00,North,5,11.0,17.0,61,-99.99,,,-99.99,,2013-04-10 23:33:00,
2013-04-10 18:43:00,35.0,23.0,-100.00,North,5,11.0,17.0,61,-99.99,,,-99.99,,2013-04-10 23:43:00,
2013-04-10 18:53:00,35.0,23.0,-100.00,North,5,11.0,17.0,61,-99.99,,,-99.99,,2013-04-10 23:53:00,
2013-04-10 19:02:00,34.0,25.0,-100.00,North,0,9.0,14.0,69,-99.99,,,-99.99,,2013-04-11 00:02:00,
2013-04-10 19:12:00,34.0,25.0,-100.00,North,0,9.0,14.0,69,-99.99,,,-99.99,,2013-04-11 00:12:00,
2013-04-10 19:22:00,34.0,25.0,-100.00,North,0,9.0,14.0,69,-99.99,,,-99.99,,2013-04-11 00:22:00,
2013-04-10 19:32:00,33.0,25.0,-100.00,North,0,8.0,14.0,71,-99.99,,,-99.99,,2013-04-11 00:32:00,
2013-04-10 19:43:00,33.0,25.0,-100.00,North,0,8.0,14.0,71,-99.99,,,-99.99,,2013-04-11 00:43:00,
2013-04-10 20:02:00,32.0,26.0,-100.00,North,350,12.0,17.0,76,-99.99,,,-99.99,,2013-04-11 01:02:00,
2013-04-10 20:12:00,32.0,26.0,-100.00,North,350,12.0,17.0,76,-99.99,,,-99.99,,2013-04-11 01:12:00,
2013-04-10 20:22:00,32.0,26.0,-100.00,North,350,12.0,17.0,76,-99.99,,,-99.99,,2013-04-11 01:22:00,
2013-04-10 20:32:00,32.0,26.0,-100.00,North,0,13.0,20.0,78,-99.99,,,-99.99,,2013-04-11 01:32:00,
2013-04-10 20:42:00,32.0,26.0,-100.00,North,0,13.0,20.0,78,-99.99,,,-99.99,,2013-04-11 01:42:00,
2013-04-10 20:52:00,32.0,26.0,-100.00,North,0,13.0,20.0,78,-99.99,,,-99.99,,2013-04-11 01:52:00,
2013-04-10 21:03:00,31.0,25.0,-100.00,North,0,12.0,17.0,79,-99.99,,,-99.99,,2013-04-11 02:03:00,
2013-04-10 21:10:00,30.0,27.0,-100.00,North,350,12.0,15.0,86,-99.99,,,-99.99,,2013-04-11 02:10:00,
2013-04-10 21:12:00,31.0,25.0,-100.00,North,0,12.0,17.0,79,-99.99,,,-99.99,,2013-04-11 02:12:00,
2013-04-10 21:22:00,31.0,25.0,-100.00,North,0,12.0,17.0,79,-99.99,,,-99.99,,2013-04-11 02:22:00,
2013-04-10 21:32:00,30.0,27.0,-100.00,North,350,12.0,15.0,86,-99.99,,,-99.99,,2013-04-11 02:32:00,
2013-04-10 21:42:00,30.0,27.0,-100.00,North,350,12.0,15.0,86,-99.99,,,-99.99,,2013-04-11 02:42:00,
2013-04-10 21:53:00,30.0,27.0,-100.00,North,350,12.0,15.0,86,-99.99,,,-99.99,,2013-04-11 02:53:00,
2013-04-10 22:02:00,30.0,27.0,-100.00,North,350,12.0,15.0,86,-99.99,,,-99.99,,2013-04-11 03:02:00,
2013-04-10 23:03:00,29.0,26.0,-100.00,North,5,12.0,17.0,90,-99.99,,,-99.99,,2013-04-11 04:03:00,
2013-04-10 23:13:00,29.0,26.0,-100.00,North,5,12.0,17.0,90,-99.99,,,-99.99,,2013-04-11 04:13:00,
2013-04-10 23:22:00,29.0,26.0,-100.00,North,5,12.0,17.0,90,-99.99,,,-99.99,,2013-04-11 04:22:00,
2013-04-10 23:33:00,29.0,27.0,-100.00,North,0,8.0,14.0,90,-99.99,,,-99.99,,2013-04-11 04:33:00,
2013-04-10 23:43:00,29.0,27.0,-100.00,North,0,8.0,14.0,90,-99.99,,,-99.99,,2013-04-11 04:43:00,
2013-04-10 23:53:00,29.0,27.0,-100.00,North,0,8.0,14.0,90,-99.99,,,-99.99,,2013-04-11 04:53:00,